createdAt,value
2022-10-11T00:03:05.661Z,100168.41
2022-10-11T00:08:07.421Z,100187.16
2022-10-11T00:13:09.122Z,100181.31
2022-10-11T00:18:10.776Z,100195.59
2022-10-11T00:23:12.444Z,100202.19
2022-10-11T00:28:14.193Z,100203.63
2022-10-11T00:33:15.896Z,100210.88
2022-10-11T00:38:18.345Z,100198.56
2022-10-11T00:43:23.833Z,100204.75
2022-10-11T00:48:48.903Z,100215.06
2022-10-11T00:53:51.749Z,100221.44
2022-10-11T00:58:55.929Z,100233.78
2022-10-11T01:03:58.100Z,100232.13
2022-10-11T01:09:00.188Z,100233.31
2022-10-11T01:14:23.229Z,100239.31
2022-10-11T01:19:48.861Z,100242.47
2022-10-11T01:25:19.376Z,100245.19
2022-10-11T01:30:32.631Z,100251.19
2022-10-11T01:35:41.022Z,100261.13
2022-10-11T01:40:49.494Z,100261.28
2022-10-11T01:45:53.012Z,100266.34
2022-10-11T01:51:01.880Z,100274.28
2022-10-11T01:56:42.374Z,100272.78
2022-10-11T02:02:20.892Z,100281.41
2022-10-11T02:07:40.624Z,100284.25
2022-10-11T02:13:16.186Z,100285.69
2022-10-11T02:18:25.228Z,100291.63
2022-10-11T02:23:31.373Z,100299.03
2022-10-11T02:28:37.207Z,100298.47
2022-10-11T02:34:00.435Z,100287.44
2022-10-11T02:39:11.401Z,100298.09
2022-10-11T02:44:19.872Z,100307.88
2022-10-11T02:49:21.928Z,100312.94
2022-10-11T02:54:25.529Z,100318.31
2022-10-11T02:59:27.253Z,100332.34
2022-10-11T03:04:28.926Z,100333.16
2022-10-11T03:09:30.645Z,100342.59
2022-10-11T03:14:32.317Z,100361.19
2022-10-11T03:19:34.068Z,100362.56
2022-10-11T03:24:35.757Z,100374.91
2022-10-11T03:29:37.523Z,100381.00
2022-10-11T03:34:39.209Z,100383.84
2022-10-11T03:39:41.145Z,100398.03
2022-10-11T03:44:42.873Z,100400.22
2022-10-11T03:49:44.584Z,100404.94
2022-10-11T03:54:46.261Z,100412.38
2022-10-11T03:59:48.335Z,100422.66
2022-10-11T04:04:50.059Z,100425.88
2022-10-11T04:09:52.760Z,100434.97
2022-10-11T04:14:54.428Z,100439.03
2022-10-11T04:19:56.098Z,100450.28
2022-10-11T04:24:58.173Z,100456.50
2022-10-11T04:29:59.859Z,100456.16
2022-10-11T04:35:01.651Z,100460.88
2022-10-11T04:40:04.924Z,100470.44
2022-10-11T04:45:07.112Z,100471.47
2022-10-11T04:50:08.871Z,100489.50
2022-10-11T04:55:11.588Z,100493.91
2022-10-11T05:00:13.815Z,100485.38
2022-10-11T05:05:17.646Z,100497.53
2022-10-11T05:10:19.332Z,100508.88
2022-10-11T05:15:21.021Z,100511.47
2022-10-11T05:20:22.694Z,100511.19
2022-10-11T05:25:24.426Z,100525.47
2022-10-11T05:30:26.209Z,100535.09
2022-10-11T05:35:27.960Z,100536.22
2022-10-11T05:40:29.634Z,100540.53
2022-10-11T05:45:33.029Z,100552.63
2022-10-11T05:50:35.043Z,100565.06
2022-10-11T05:55:38.802Z,100570.91
2022-10-11T06:00:41.254Z,100590.56
2022-10-11T06:05:43.282Z,100592.84
2022-10-11T06:10:44.975Z,100594.47
2022-10-11T06:15:46.644Z,100602.63
2022-10-11T06:20:48.325Z,100602.84
2022-10-11T06:26:01.703Z,100609.84
2022-10-11T06:31:05.294Z,100612.44
2022-10-11T06:36:10.949Z,100626.53
2022-10-11T06:41:26.924Z,100627.25
2022-10-11T06:46:32.073Z,100636.31
2022-10-11T06:51:35.437Z,100641.91
2022-10-11T06:56:37.189Z,100636.63
2022-10-11T07:01:39.145Z,100650.88
2022-10-11T07:06:41.973Z,100653.06
2022-10-11T07:11:43.750Z,100658.31
2022-10-11T07:16:45.418Z,100665.72
2022-10-11T07:21:47.067Z,100664.91
2022-10-11T07:26:48.833Z,100665.81
2022-10-11T07:31:50.875Z,100678.09
2022-10-11T07:36:52.649Z,100676.53
2022-10-11T07:41:54.785Z,100680.13
2022-10-11T07:47:15.262Z,100673.41
2022-10-11T07:52:16.987Z,100679.66
2022-10-11T07:57:18.648Z,100689.75
2022-10-11T08:02:20.309Z,100685.31
2022-10-11T08:07:22.102Z,100687.66
2022-10-11T08:12:23.777Z,100683.25
2022-10-11T08:17:26.208Z,100685.53
2022-10-11T08:22:27.916Z,100687.69
2022-10-11T08:27:29.576Z,100687.25
2022-10-11T08:32:31.249Z,100704.50
2022-10-11T08:37:32.954Z,100697.81
2022-10-11T08:42:46.716Z,100687.13
2022-10-11T08:47:48.630Z,100693.88
2022-10-11T08:52:57.880Z,100685.34
2022-10-11T08:57:59.732Z,100678.75
2022-10-11T09:03:39.001Z,100698.00
2022-10-11T09:08:50.313Z,100695.84
2022-10-11T09:14:16.039Z,100699.00
2022-10-11T09:19:50.148Z,100699.50
2022-10-11T09:25:03.768Z,100692.72
2022-10-11T09:30:15.240Z,100702.25
2022-10-11T09:35:19.960Z,100695.56
2022-10-11T09:40:45.306Z,100684.09
2022-10-11T09:45:49.533Z,100686.16
2022-10-11T09:50:54.631Z,100689.91
2022-10-11T09:56:04.583Z,100698.16
2022-10-11T10:01:22.100Z,100704.53
2022-10-11T10:06:26.203Z,100691.66
2022-10-11T10:11:36.845Z,100694.84
2022-10-11T10:16:38.595Z,100696.38
2022-10-11T10:21:49.587Z,100698.59
2022-10-11T10:27:18.138Z,100697.91
2022-10-11T10:32:27.989Z,100700.47
2022-10-11T10:37:34.883Z,100707.38
2022-10-11T10:42:37.312Z,100706.19
2022-10-11T10:48:03.587Z,100709.09
2022-10-11T10:53:26.252Z,100711.78
2022-10-11T10:58:36.908Z,100703.34
2022-10-11T11:03:41.581Z,100694.31
2022-10-11T11:08:43.208Z,100705.72
2022-10-11T11:14:05.988Z,100694.78
2022-10-11T11:19:38.518Z,100702.06
2022-10-11T11:25:14.735Z,100694.50
2022-10-11T11:30:54.465Z,100687.41
2022-10-11T11:36:03.078Z,100682.72
2022-10-11T11:41:11.714Z,100678.63
2022-10-11T11:46:17.666Z,100683.25
2022-10-11T11:51:42.834Z,100685.69
2022-10-11T11:57:05.956Z,100686.25
2022-10-11T12:02:38.064Z,100681.78
2022-10-11T12:08:02.245Z,100676.19
2022-10-11T12:13:12.585Z,100675.34
2022-10-11T12:18:16.898Z,100669.78
2022-10-11T12:23:20.058Z,100665.22
2022-10-11T12:28:37.301Z,100665.88
2022-10-11T12:33:39.017Z,100656.47
2022-10-11T12:38:41.944Z,100657.16
2022-10-11T12:43:49.500Z,100660.84
2022-10-11T12:49:25.708Z,100660.72
2022-10-11T12:54:53.004Z,100664.03
2022-10-11T12:59:54.830Z,100654.72
2022-10-11T13:05:47.733Z,100654.91
2022-10-11T13:10:53.379Z,100657.47
2022-10-11T13:15:59.052Z,100665.13
2022-10-11T13:21:00.834Z,100659.34
2022-10-11T13:26:02.656Z,100658.53
2022-10-11T13:31:05.788Z,100657.28
2022-10-11T13:36:20.680Z,100670.69
2022-10-11T13:41:26.038Z,100662.88
2022-10-11T13:46:32.341Z,100652.88
2022-10-11T13:51:37.389Z,100655.09
2022-10-11T13:56:50.926Z,100651.94
2022-10-11T14:02:00.292Z,100647.25
2022-10-11T14:07:02.746Z,100648.69
2022-10-11T14:12:28.587Z,100645.50
2022-10-11T14:17:40.834Z,100648.22
2022-10-11T14:22:43.022Z,100649.28
2022-10-11T14:27:44.907Z,100645.16
2022-10-11T14:32:49.124Z,100642.72
2022-10-11T14:37:51.272Z,100645.03
2022-10-11T14:42:53.749Z,100640.50
2022-10-11T14:47:55.825Z,100637.16
2022-10-11T14:52:58.192Z,100649.81
2022-10-11T14:57:59.922Z,100650.75
2022-10-11T15:03:01.718Z,100648.78
2022-10-11T15:08:04.912Z,100647.09
2022-10-11T15:13:08.093Z,100646.53
2022-10-11T15:18:16.640Z,100645.97
2022-10-11T15:23:18.372Z,100655.72
2022-10-11T15:28:28.533Z,100649.56
2022-10-11T15:33:30.281Z,100659.59
2022-10-11T15:38:32.161Z,100649.59
2022-10-11T15:43:34.484Z,100648.75
2022-10-11T15:48:37.918Z,100650.59
2022-10-11T15:53:40.027Z,100662.25
2022-10-11T15:58:42.924Z,100657.91
2022-10-11T16:03:46.093Z,100657.38
2022-10-11T16:08:48.109Z,100667.31
2022-10-11T16:13:49.782Z,100663.50
2022-10-11T16:18:51.583Z,100669.22
2022-10-11T16:23:53.254Z,100674.53
2022-10-11T16:28:56.731Z,100678.09
2022-10-11T16:33:58.441Z,100681.28
2022-10-11T16:39:01.556Z,100686.56
2022-10-11T16:44:03.899Z,100685.72
2022-10-11T16:49:05.822Z,100688.81
2022-10-11T16:54:07.688Z,100691.94
2022-10-11T16:59:09.441Z,100700.31
2022-10-11T17:04:11.150Z,100700.94
2022-10-11T17:09:13.389Z,100709.69
2022-10-11T17:14:15.109Z,100706.56
2022-10-11T17:19:16.846Z,100708.97
2022-10-11T17:24:18.640Z,100706.88
2022-10-11T17:29:22.037Z,100706.81
2022-10-11T17:34:23.739Z,100712.47
2022-10-11T17:39:25.911Z,100707.69
2022-10-11T17:44:27.577Z,100712.59
2022-10-11T17:49:29.265Z,100716.63
2022-10-11T17:54:30.972Z,100716.38
2022-10-11T17:59:32.638Z,100724.47
2022-10-11T18:04:34.300Z,100712.34
2022-10-11T18:09:36.848Z,100717.19
2022-10-11T18:14:38.537Z,100714.34
2022-10-11T18:19:40.193Z,100722.63
2022-10-11T18:24:41.901Z,100711.56
2022-10-11T18:29:43.682Z,100719.63
2022-10-11T18:34:45.384Z,100722.25
2022-10-11T18:39:47.183Z,100719.28
2022-10-11T18:44:48.881Z,100722.25
2022-10-11T18:49:50.551Z,100724.38
2022-10-11T18:54:52.213Z,100722.75
2022-10-11T18:59:53.930Z,100710.34
2022-10-11T19:04:55.617Z,100708.28
2022-10-11T19:09:57.263Z,100711.66
2022-10-11T19:14:58.994Z,100715.53
2022-10-11T19:20:01.031Z,100720.31
2022-10-11T19:25:02.743Z,100709.00
2022-10-11T19:30:04.764Z,100716.66
2022-10-11T19:35:07.203Z,100712.19
2022-10-11T19:40:09.540Z,100715.47
2022-10-11T19:45:11.217Z,100724.19
2022-10-11T19:50:12.921Z,100719.00
2022-10-11T19:55:15.156Z,100724.13
2022-10-11T20:00:17.092Z,100720.16
2022-10-11T20:05:18.826Z,100729.19
2022-10-11T20:10:20.485Z,100730.25
2022-10-11T20:15:22.145Z,100726.88
2022-10-11T20:20:23.884Z,100733.69
2022-10-11T20:25:25.544Z,100728.47
2022-10-11T20:30:27.258Z,100733.56
2022-10-11T20:35:28.920Z,100733.09
2022-10-11T20:40:30.713Z,100729.69
2022-10-11T20:45:32.386Z,100732.22
2022-10-11T20:50:34.421Z,100731.00
2022-10-11T20:55:36.112Z,100738.78
2022-10-11T21:00:39.834Z,100734.19
2022-10-11T21:05:41.809Z,100734.78
2022-10-11T21:10:51.872Z,100736.88
2022-10-11T21:15:53.687Z,100736.63
2022-10-11T21:20:55.517Z,100736.38
2022-10-11T21:26:02.567Z,100742.19
2022-10-11T21:31:09.991Z,100741.09
2022-10-11T21:36:17.423Z,100736.00
2022-10-11T21:41:21.679Z,100741.22
2022-10-11T21:46:41.687Z,100733.91
2022-10-11T21:51:47.725Z,100744.34
2022-10-11T21:56:49.505Z,100743.88
2022-10-11T22:01:51.212Z,100742.81
2022-10-11T22:06:52.950Z,100732.91
2022-10-11T22:11:54.603Z,100737.78
2022-10-11T22:16:56.908Z,100736.72
2022-10-11T22:21:58.608Z,100739.09
2022-10-11T22:27:00.286Z,100737.75
2022-10-11T22:32:01.926Z,100738.34
2022-10-11T22:37:03.624Z,100746.13
2022-10-11T22:42:05.415Z,100747.72
2022-10-11T22:47:07.237Z,100751.28
2022-10-11T22:52:08.900Z,100749.25
2022-10-11T22:57:10.649Z,100751.19
2022-10-11T23:02:12.325Z,100755.34
2022-10-11T23:07:14.002Z,100754.69
2022-10-11T23:12:15.674Z,100747.94
2022-10-11T23:17:18.387Z,100748.25
2022-10-11T23:22:20.057Z,100745.06
2022-10-11T23:27:21.775Z,100753.13
2022-10-11T23:32:23.561Z,100743.84
2022-10-11T23:37:25.228Z,100748.78
2022-10-11T23:42:27.915Z,100742.44
2022-10-11T23:47:29.680Z,100741.25
2022-10-11T23:52:31.380Z,100750.72
2022-10-11T23:57:33.050Z,100744.66
